createdAt,value
2023-10-26T00:02:16.404Z,17.45
2023-10-26T00:04:43.271Z,17.48
2023-10-26T00:07:10.629Z,15.13
2023-10-26T00:09:37.313Z,15.82
2023-10-26T00:12:04.404Z,14.75
2023-10-26T00:14:31.242Z,16.13
2023-10-26T00:16:58.019Z,13.77
2023-10-26T00:19:24.814Z,13.57
2023-10-26T00:21:53.446Z,12.98
2023-10-26T00:24:20.229Z,14.05
2023-10-26T00:26:47.044Z,12.95
2023-10-26T00:29:13.883Z,13.00
2023-10-26T00:31:40.575Z,12.40
2023-10-26T00:34:07.434Z,11.40
2023-10-26T00:36:34.170Z,12.32
2023-10-26T00:39:01.286Z,12.65
2023-10-26T00:41:27.983Z,13.57
2023-10-26T00:43:54.809Z,12.95
2023-10-26T00:46:21.693Z,12.80
2023-10-26T00:48:48.611Z,13.95
2023-10-26T00:51:15.661Z,11.88
2023-10-26T00:53:42.822Z,16.05
2023-10-26T00:56:11.325Z,15.07
2023-10-26T00:58:38.800Z,16.02
2023-10-26T01:01:05.972Z,17.65
2023-10-26T01:03:33.763Z,18.60
2023-10-26T01:06:00.677Z,20.35
2023-10-26T01:08:27.413Z,21.17
2023-10-26T01:10:55.043Z,22.45
2023-10-26T01:13:21.803Z,21.23
2023-10-26T01:15:48.645Z,19.80
2023-10-26T01:18:16.830Z,22.30
2023-10-26T01:20:43.893Z,31.00
2023-10-26T01:23:11.232Z,32.10
2023-10-26T01:25:38.199Z,33.00
2023-10-26T01:28:05.445Z,31.92
2023-10-26T01:30:33.988Z,35.67
2023-10-26T01:33:01.242Z,42.95
2023-10-26T01:35:28.065Z,42.47
2023-10-26T01:37:54.814Z,44.50
2023-10-26T01:40:22.666Z,50.47
2023-10-26T01:42:49.508Z,49.25
2023-10-26T01:45:16.341Z,46.25
2023-10-26T01:47:43.873Z,37.80
2023-10-26T01:50:11.545Z,35.28
2023-10-26T01:52:38.332Z,35.83
2023-10-26T01:55:05.819Z,34.75
2023-10-26T01:57:32.513Z,47.53
2023-10-26T01:59:59.337Z,39.40
2023-10-26T02:02:26.229Z,42.03
2023-10-26T02:04:52.936Z,38.80
2023-10-26T02:07:19.849Z,38.45
2023-10-26T02:09:46.581Z,35.90
2023-10-26T02:12:13.647Z,34.88
2023-10-26T02:14:41.016Z,34.97
2023-10-26T02:17:07.747Z,33.72
2023-10-26T02:19:34.579Z,30.02
2023-10-26T02:22:01.454Z,30.58
2023-10-26T02:24:28.526Z,28.77
2023-10-26T02:26:55.858Z,29.58
2023-10-26T02:29:22.676Z,30.45
2023-10-26T02:31:51.018Z,27.33
2023-10-26T02:34:17.780Z,27.15
2023-10-26T02:36:44.492Z,28.13
2023-10-26T02:39:11.231Z,28.30
2023-10-26T02:41:38.502Z,28.35
2023-10-26T02:44:05.367Z,26.90
2023-10-26T02:46:32.110Z,26.70
2023-10-26T02:48:59.333Z,27.30
2023-10-26T02:51:26.154Z,27.27
2023-10-26T02:53:52.868Z,25.90
2023-10-26T02:56:21.044Z,24.85
2023-10-26T02:58:48.793Z,27.05
2023-10-26T03:01:15.513Z,25.05
2023-10-26T03:03:43.618Z,25.50
2023-10-26T03:06:10.725Z,25.55
2023-10-26T03:08:37.455Z,24.67
2023-10-26T03:11:04.433Z,24.27
2023-10-26T03:13:31.139Z,24.55
2023-10-26T03:15:58.524Z,27.10
2023-10-26T03:18:25.296Z,26.80
2023-10-26T03:20:52.176Z,24.90
2023-10-26T03:23:19.408Z,25.20
2023-10-26T03:25:46.383Z,22.40
2023-10-26T03:28:13.510Z,23.75
2023-10-26T03:30:40.209Z,23.65
2023-10-26T03:33:06.975Z,25.77
2023-10-26T03:35:36.945Z,24.80
2023-10-26T03:38:03.747Z,23.40
2023-10-26T03:40:33.372Z,24.92
2023-10-26T03:43:00.352Z,22.92
2023-10-26T03:45:29.712Z,26.58
2023-10-26T03:47:56.619Z,25.95
2023-10-26T03:50:23.943Z,26.45
2023-10-26T03:52:50.652Z,26.42
2023-10-26T03:55:18.548Z,27.50
2023-10-26T03:57:46.351Z,31.80
2023-10-26T04:00:13.787Z,31.48
2023-10-26T04:02:40.629Z,29.55
2023-10-26T04:05:07.708Z,35.05
2023-10-26T04:07:35.234Z,30.27
2023-10-26T04:10:06.389Z,30.88
2023-10-26T04:12:33.122Z,35.22
2023-10-26T04:14:59.862Z,32.83
2023-10-26T04:17:27.024Z,35.72
2023-10-26T04:19:53.806Z,34.75
2023-10-26T04:22:20.709Z,36.63
2023-10-26T04:24:47.462Z,35.78
2023-10-26T04:27:14.491Z,34.28
2023-10-26T04:29:41.309Z,36.38
2023-10-26T04:32:09.268Z,35.75
2023-10-26T04:34:36.081Z,39.50
2023-10-26T04:37:04.040Z,37.88
2023-10-26T04:39:30.899Z,36.47
2023-10-26T04:41:57.738Z,28.15
2023-10-26T04:44:24.620Z,33.28
2023-10-26T04:46:52.498Z,38.53
2023-10-26T04:49:20.174Z,34.00
2023-10-26T04:51:46.915Z,36.58
2023-10-26T04:54:13.647Z,37.40
2023-10-26T04:56:40.402Z,38.63
2023-10-26T04:59:07.093Z,38.63
2023-10-26T05:01:33.950Z,41.47
2023-10-26T05:04:00.734Z,42.80
2023-10-26T05:06:27.626Z,44.55
2023-10-26T05:08:54.520Z,45.13
2023-10-26T05:11:21.769Z,46.13
2023-10-26T05:13:49.970Z,49.63
2023-10-26T05:16:16.735Z,49.13
2023-10-26T05:18:43.507Z,47.78
2023-10-26T05:21:10.350Z,51.45
2023-10-26T05:23:38.391Z,50.58
2023-10-26T05:26:05.176Z,54.35
2023-10-26T05:28:31.939Z,41.28
2023-10-26T05:30:59.372Z,52.00
2023-10-26T05:33:26.586Z,43.17
2023-10-26T05:35:53.394Z,46.92
2023-10-26T05:38:20.961Z,41.80
2023-10-26T05:40:56.581Z,47.42
2023-10-26T05:43:26.252Z,55.08
2023-10-26T05:45:53.920Z,49.95
2023-10-26T05:48:20.888Z,72.05
2023-10-26T05:50:47.710Z,63.15
2023-10-26T05:53:14.451Z,59.95
2023-10-26T05:55:41.204Z,60.55
2023-10-26T05:58:10.194Z,66.03
2023-10-26T06:00:39.564Z,60.80
2023-10-26T06:03:06.590Z,63.92
2023-10-26T06:05:33.607Z,59.65
2023-10-26T06:08:00.294Z,67.38
2023-10-26T06:10:27.005Z,73.88
2023-10-26T06:12:53.719Z,82.40
2023-10-26T06:15:20.624Z,70.18
2023-10-26T06:17:47.380Z,84.18
2023-10-26T06:20:15.072Z,82.47
2023-10-26T06:22:43.059Z,71.18
2023-10-26T06:25:10.653Z,72.10
2023-10-26T06:27:37.558Z,77.43
2023-10-26T06:30:05.039Z,77.78
2023-10-26T06:32:31.781Z,73.38
2023-10-26T06:34:58.547Z,90.30
2023-10-26T06:37:25.365Z,46.63
2023-10-26T06:39:52.069Z,54.45
2023-10-26T06:42:18.926Z,32.33
2023-10-26T06:44:51.897Z,21.60
2023-10-26T06:47:18.834Z,29.80
2023-10-26T06:49:45.582Z,33.90
2023-10-26T06:52:12.347Z,33.70
2023-10-26T06:54:40.642Z,31.30
2023-10-26T06:57:07.663Z,31.80
2023-10-26T06:59:34.424Z,30.00
2023-10-26T07:02:07.380Z,33.65
2023-10-26T07:04:36.966Z,32.05
2023-10-26T07:07:04.314Z,29.15
2023-10-26T07:09:31.161Z,29.17
2023-10-26T07:11:57.886Z,25.90
2023-10-26T07:14:25.392Z,31.17
2023-10-26T07:16:52.216Z,29.40
2023-10-26T07:19:18.924Z,24.35
2023-10-26T07:21:45.731Z,30.90
2023-10-26T07:24:12.989Z,29.23
2023-10-26T07:26:39.828Z,32.80
2023-10-26T07:29:06.665Z,37.67
2023-10-26T07:31:33.676Z,32.75
2023-10-26T07:34:00.473Z,35.05
2023-10-26T07:36:31.373Z,40.38
2023-10-26T07:39:44.645Z,44.33
2023-10-26T07:42:06.984Z,36.88
2023-10-26T07:44:34.768Z,43.10
2023-10-26T07:47:02.094Z,61.95
2023-10-26T07:49:28.802Z,60.97
2023-10-26T07:51:56.069Z,71.22
2023-10-26T07:54:22.811Z,86.80
2023-10-26T07:56:50.289Z,88.82
2023-10-26T07:59:17.019Z,44.50
2023-10-26T08:01:44.108Z,32.38
2023-10-26T08:04:11.389Z,31.77
2023-10-26T08:06:38.122Z,25.10
2023-10-26T08:09:06.242Z,25.83
2023-10-26T08:11:32.974Z,27.52
2023-10-26T08:14:00.063Z,33.83
2023-10-26T08:16:39.159Z,33.95
2023-10-26T08:19:11.919Z,36.97
2023-10-26T08:21:38.732Z,37.72
2023-10-26T08:24:05.710Z,43.17
2023-10-26T08:26:32.916Z,46.03
2023-10-26T08:31:35.902Z,32.83
2023-10-26T08:34:02.936Z,38.83
2023-10-26T08:36:29.648Z,37.47
2023-10-26T08:38:56.502Z,33.83
2023-10-26T08:41:23.357Z,32.70
2023-10-26T08:43:50.392Z,29.25
2023-10-26T08:46:19.612Z,32.08
2023-10-26T08:48:49.336Z,30.08
2023-10-26T08:51:16.501Z,30.77
2023-10-26T08:53:43.497Z,33.78
2023-10-26T08:56:12.309Z,29.75
2023-10-26T08:58:39.583Z,29.08
2023-10-26T09:01:06.878Z,31.38
2023-10-26T09:03:37.385Z,31.45
2023-10-26T09:06:04.522Z,29.48
2023-10-26T09:08:32.131Z,28.30
2023-10-26T09:10:58.965Z,30.50
2023-10-26T09:13:30.232Z,30.63
2023-10-26T09:15:59.800Z,28.70
2023-10-26T09:18:28.435Z,29.00
2023-10-26T09:21:09.946Z,30.70
2023-10-26T09:23:41.147Z,31.88
2023-10-26T09:26:09.498Z,27.52
2023-10-26T09:28:54.546Z,28.67
2023-10-26T09:31:23.050Z,30.08
2023-10-26T09:33:50.812Z,29.40
2023-10-26T09:36:19.863Z,28.05
2023-10-26T09:38:48.719Z,28.50
2023-10-26T09:41:20.658Z,29.08
2023-10-26T09:43:48.205Z,27.92
2023-10-26T09:46:16.503Z,28.40
2023-10-26T09:48:43.624Z,27.20
2023-10-26T09:51:15.518Z,24.90
2023-10-26T09:53:44.931Z,21.95
2023-10-26T09:56:21.678Z,20.35
2023-10-26T09:58:49.278Z,23.42
2023-10-26T10:01:38.671Z,23.13
2023-10-26T10:04:07.118Z,23.50
2023-10-26T10:06:59.674Z,25.52
2023-10-26T10:09:28.207Z,22.80
2023-10-26T10:12:07.363Z,22.75
2023-10-26T10:14:49.702Z,22.48
2023-10-26T10:17:18.190Z,21.10
2023-10-26T10:19:48.602Z,22.65
2023-10-26T10:22:40.006Z,21.73
2023-10-26T10:25:12.954Z,19.73
2023-10-26T10:27:41.698Z,20.38
2023-10-26T10:30:14.606Z,18.52
2023-10-26T10:32:53.136Z,19.92
2023-10-26T10:35:23.109Z,19.75
2023-10-26T10:38:15.235Z,19.73
2023-10-26T10:41:02.805Z,18.45
2023-10-26T10:43:50.415Z,17.73
2023-10-26T10:46:28.179Z,17.10
2023-10-26T10:49:05.367Z,17.23
2023-10-26T10:51:40.856Z,17.15
2023-10-26T10:54:20.504Z,17.42
2023-10-26T10:56:56.955Z,17.15
2023-10-26T10:59:30.661Z,17.23
2023-10-26T11:02:14.211Z,19.05
2023-10-26T11:05:12.840Z,16.92
2023-10-26T11:07:44.981Z,16.10
2023-10-26T11:10:12.028Z,18.13
2023-10-26T11:12:38.853Z,17.67
2023-10-26T11:15:07.264Z,17.95
2023-10-26T11:17:35.050Z,19.85
2023-10-26T11:20:01.916Z,18.15
2023-10-26T11:22:29.230Z,20.83
2023-10-26T11:24:56.091Z,19.48
2023-10-26T11:27:23.328Z,21.60
2023-10-26T11:30:06.616Z,21.35
2023-10-26T11:32:34.020Z,22.08
2023-10-26T11:35:17.434Z,20.63
2023-10-26T11:37:46.714Z,22.83
2023-10-26T11:40:15.359Z,22.20
2023-10-26T11:42:49.193Z,20.90
2023-10-26T11:45:24.033Z,22.67
2023-10-26T11:47:55.773Z,21.25
2023-10-26T11:50:23.670Z,21.52
2023-10-26T11:52:52.146Z,20.95
2023-10-26T11:55:19.444Z,21.90
2023-10-26T11:57:47.183Z,22.55
2023-10-26T12:00:15.774Z,22.42
2023-10-26T12:02:43.631Z,25.63
2023-10-26T12:05:16.571Z,29.10
2023-10-26T12:07:49.988Z,23.48
2023-10-26T12:10:19.115Z,23.02
2023-10-26T12:12:46.773Z,24.60
2023-10-26T12:15:13.610Z,21.80
2023-10-26T12:17:40.542Z,22.90
2023-10-26T12:20:09.184Z,18.52
2023-10-26T12:22:36.546Z,21.10
2023-10-26T12:25:07.786Z,21.55
2023-10-26T12:28:18.068Z,22.08
2023-10-26T12:30:25.319Z,23.83
2023-10-26T12:32:52.093Z,18.98
2023-10-26T12:35:18.869Z,20.75
2023-10-26T12:37:46.024Z,19.35
2023-10-26T12:40:12.817Z,19.70
2023-10-26T12:42:40.520Z,21.58
2023-10-26T12:45:08.019Z,17.10
2023-10-26T12:47:34.781Z,15.75
2023-10-26T12:50:02.287Z,15.82
2023-10-26T12:52:29.044Z,16.88
2023-10-26T12:54:55.808Z,17.95
2023-10-26T12:57:22.600Z,18.58
2023-10-26T12:59:49.856Z,18.67
2023-10-26T13:02:16.668Z,19.55
2023-10-26T13:04:43.819Z,21.27
2023-10-26T13:07:10.906Z,21.73
2023-10-26T13:09:42.078Z,22.13
2023-10-26T13:12:09.618Z,22.88
2023-10-26T13:14:36.305Z,24.80
2023-10-26T13:17:05.664Z,25.23
2023-10-26T13:19:32.559Z,27.45
2023-10-26T13:21:59.426Z,27.63
2023-10-26T13:24:26.427Z,26.83
2023-10-26T13:26:53.255Z,25.00
2023-10-26T13:29:20.323Z,26.45
2023-10-26T13:31:47.038Z,26.65
2023-10-26T13:34:14.118Z,29.98
2023-10-26T13:36:40.848Z,27.70
2023-10-26T13:39:07.656Z,32.42
2023-10-26T13:41:34.426Z,30.80
2023-10-26T13:44:01.170Z,32.85
2023-10-26T13:46:29.588Z,33.17
2023-10-26T13:48:56.726Z,35.83
2023-10-26T13:51:23.732Z,38.03
2023-10-26T13:53:50.596Z,38.55
2023-10-26T13:56:17.468Z,41.55
2023-10-26T13:58:44.205Z,43.67
2023-10-26T14:01:14.910Z,42.55
2023-10-26T14:03:42.489Z,45.22
2023-10-26T14:06:10.747Z,42.58
2023-10-26T14:08:37.895Z,46.42
2023-10-26T14:11:05.028Z,45.55
2023-10-26T14:13:32.505Z,46.35
2023-10-26T14:15:59.632Z,45.85
2023-10-26T14:18:26.599Z,49.05
2023-10-26T14:20:53.400Z,37.95
2023-10-26T14:23:20.866Z,42.83
2023-10-26T14:25:47.859Z,46.53
2023-10-26T14:28:14.678Z,45.22
2023-10-26T14:30:41.434Z,40.35
2023-10-26T14:33:08.482Z,40.25
2023-10-26T14:35:35.264Z,37.95
2023-10-26T14:38:02.655Z,38.15
2023-10-26T14:40:30.273Z,38.53
2023-10-26T14:42:57.734Z,41.25
2023-10-26T14:45:26.306Z,34.42
2023-10-26T14:47:53.288Z,37.28
2023-10-26T14:50:20.087Z,38.67
2023-10-26T14:52:46.921Z,47.60
2023-10-26T14:55:14.009Z,44.53
2023-10-26T14:57:40.971Z,45.03
2023-10-26T15:00:08.473Z,46.08
2023-10-26T15:02:35.522Z,45.53
2023-10-26T15:05:02.466Z,49.45
2023-10-26T15:07:29.165Z,46.53
2023-10-26T15:10:23.854Z,46.53
2023-10-26T15:12:43.304Z,49.70
2023-10-26T15:15:10.293Z,50.10
2023-10-26T15:17:37.248Z,47.95
2023-10-26T15:20:04.520Z,45.20
2023-10-26T15:22:31.396Z,47.38
2023-10-26T15:24:58.297Z,46.75
2023-10-26T15:27:25.182Z,46.25
2023-10-26T15:29:51.917Z,49.05
2023-10-26T15:32:21.684Z,50.25
2023-10-26T15:34:48.573Z,47.83
2023-10-26T15:37:16.331Z,49.78
2023-10-26T15:39:44.632Z,47.08
2023-10-26T15:42:15.955Z,50.58
2023-10-26T15:44:46.624Z,50.83
2023-10-26T15:47:15.029Z,47.15
2023-10-26T15:49:41.767Z,46.97
2023-10-26T15:52:08.805Z,50.83
2023-10-26T15:54:36.006Z,50.00
2023-10-26T15:57:03.260Z,50.17
2023-10-26T15:59:30.061Z,48.33
2023-10-26T16:01:56.830Z,47.33
2023-10-26T16:04:24.033Z,47.88
2023-10-26T16:06:51.388Z,49.90
2023-10-26T16:09:18.431Z,52.70
2023-10-26T16:11:45.304Z,55.55
2023-10-26T16:14:12.433Z,54.47
2023-10-26T16:16:39.260Z,52.38
2023-10-26T16:19:06.379Z,55.28
2023-10-26T16:21:33.224Z,55.67
2023-10-26T16:24:00.042Z,52.28
2023-10-26T16:26:27.012Z,56.00
2023-10-26T16:28:56.532Z,56.42
2023-10-26T16:31:23.524Z,55.45
2023-10-26T16:33:50.387Z,57.05
2023-10-26T16:36:17.388Z,60.55
2023-10-26T16:38:44.172Z,68.30
2023-10-26T16:41:11.042Z,65.40
2023-10-26T16:43:37.944Z,100.90
2023-10-26T16:46:04.877Z,110.88
2023-10-26T16:48:31.689Z,90.22
2023-10-26T16:51:00.753Z,80.65
2023-10-26T16:53:31.756Z,90.93
2023-10-26T16:56:04.167Z,78.50
2023-10-26T16:58:32.746Z,84.00
2023-10-26T17:01:00.055Z,86.97
2023-10-26T17:03:28.133Z,94.70
2023-10-26T17:05:55.346Z,89.70
2023-10-26T17:08:22.274Z,86.13
2023-10-26T17:10:49.633Z,80.93
2023-10-26T17:13:17.370Z,76.38
2023-10-26T17:15:45.451Z,74.75
2023-10-26T17:18:12.301Z,69.68
2023-10-26T17:20:39.126Z,62.47
2023-10-26T17:23:05.871Z,58.67
2023-10-26T17:25:36.389Z,84.85
2023-10-26T17:28:03.953Z,78.97
2023-10-26T17:30:31.132Z,88.25
2023-10-26T17:32:58.275Z,90.72
2023-10-26T17:35:25.513Z,84.03
2023-10-26T17:37:54.278Z,137.25
2023-10-26T17:40:23.570Z,104.63
2023-10-26T17:42:50.491Z,111.72
2023-10-26T17:45:18.962Z,90.13
2023-10-26T17:47:46.195Z,70.95
2023-10-26T17:50:13.068Z,70.70
2023-10-26T17:52:42.753Z,85.03
2023-10-26T17:55:10.056Z,102.15
2023-10-26T17:57:37.828Z,93.68
2023-10-26T18:00:05.298Z,92.32
2023-10-26T18:02:39.675Z,87.22
2023-10-26T18:05:07.128Z,86.07
2023-10-26T18:07:34.789Z,92.88
2023-10-26T18:10:01.605Z,86.63
2023-10-26T18:12:28.492Z,94.88
2023-10-26T18:14:55.422Z,96.65
2023-10-26T18:17:24.528Z,148.10
2023-10-26T18:19:51.331Z,147.18
2023-10-26T18:22:18.105Z,166.07
2023-10-26T18:24:45.057Z,140.18
2023-10-26T18:27:12.428Z,115.65
2023-10-26T18:29:39.193Z,96.80
2023-10-26T18:32:06.181Z,96.85
2023-10-26T18:34:34.840Z,80.35
2023-10-26T18:37:02.671Z,67.97
2023-10-26T18:39:29.494Z,61.85
2023-10-26T18:41:56.827Z,71.50
2023-10-26T18:44:23.557Z,46.22
2023-10-26T18:46:50.333Z,43.58
2023-10-26T18:49:17.366Z,41.78
2023-10-26T18:51:44.232Z,46.40
2023-10-26T18:54:11.053Z,50.38
2023-10-26T18:56:38.236Z,78.45
2023-10-26T18:59:05.215Z,71.60
2023-10-26T19:01:32.010Z,65.55
2023-10-26T19:04:02.898Z,51.75
2023-10-26T19:06:31.253Z,46.38
2023-10-26T19:08:59.936Z,48.72
2023-10-26T19:11:27.023Z,46.40
2023-10-26T19:13:54.018Z,46.97
2023-10-26T19:16:21.294Z,48.45
2023-10-26T19:18:48.242Z,50.05
2023-10-26T19:21:15.211Z,57.92
2023-10-26T19:23:42.699Z,52.10
2023-10-26T19:26:10.907Z,53.88
2023-10-26T19:28:37.794Z,66.25
2023-10-26T19:31:05.666Z,65.18
2023-10-26T19:33:32.512Z,54.20
2023-10-26T19:35:59.231Z,53.45
2023-10-26T19:38:28.494Z,53.40
2023-10-26T19:40:55.414Z,58.40
2023-10-26T19:43:22.351Z,58.25
2023-10-26T19:45:49.625Z,66.40
2023-10-26T19:48:17.626Z,55.10
2023-10-26T19:50:44.384Z,50.22
2023-10-26T19:53:11.098Z,58.30
2023-10-26T19:55:40.245Z,52.28
2023-10-26T19:58:07.761Z,56.15
2023-10-26T20:00:34.833Z,54.22
2023-10-26T20:03:01.723Z,61.15
2023-10-26T20:05:29.504Z,63.00
2023-10-26T20:07:56.210Z,61.90
2023-10-26T20:10:23.072Z,82.25
2023-10-26T20:12:49.844Z,81.90
2023-10-26T20:15:16.870Z,75.40
2023-10-26T20:17:43.719Z,67.95
2023-10-26T20:20:11.425Z,88.15
2023-10-26T20:22:38.197Z,92.15
2023-10-26T20:25:05.518Z,124.15
2023-10-26T20:27:32.700Z,114.35
2023-10-26T20:29:59.659Z,109.22
2023-10-26T20:32:26.906Z,85.10
2023-10-26T20:34:53.624Z,84.35
2023-10-26T20:37:20.585Z,89.95
2023-10-26T20:39:47.557Z,87.55
2023-10-26T20:42:14.346Z,95.05
2023-10-26T20:44:41.068Z,75.10
2023-10-26T20:47:07.937Z,65.00
2023-10-26T20:49:34.971Z,62.30
2023-10-26T20:52:01.856Z,74.00
2023-10-26T20:54:28.793Z,67.00
2023-10-26T20:56:55.525Z,59.25
2023-10-26T20:59:22.725Z,67.32
2023-10-26T21:01:49.528Z,56.28
2023-10-26T21:04:16.756Z,76.28
2023-10-26T21:06:47.392Z,75.97
2023-10-26T21:09:15.418Z,54.92
2023-10-26T21:11:42.246Z,48.33
2023-10-26T21:14:09.861Z,60.65
2023-10-26T21:16:36.791Z,58.72
2023-10-26T21:19:03.868Z,56.67
2023-10-26T21:21:31.078Z,55.35
2023-10-26T21:23:57.890Z,61.75
2023-10-26T21:26:24.700Z,69.05
2023-10-26T21:28:55.135Z,68.57
2023-10-26T21:31:24.769Z,65.45
2023-10-26T21:33:52.587Z,69.40
2023-10-26T21:36:21.158Z,66.32
2023-10-26T21:38:49.590Z,67.70
2023-10-26T21:41:16.423Z,68.35
2023-10-26T21:43:43.135Z,56.22
2023-10-26T21:46:10.015Z,70.07
2023-10-26T21:48:37.274Z,71.20
2023-10-26T21:51:08.326Z,87.10
2023-10-26T21:53:35.209Z,81.07
2023-10-26T21:56:01.924Z,74.30
2023-10-26T21:58:28.648Z,57.10
2023-10-26T22:00:55.459Z,69.40
2023-10-26T22:03:25.201Z,69.65
2023-10-26T22:05:51.933Z,75.55
2023-10-26T22:08:18.809Z,68.47
2023-10-26T22:10:45.695Z,92.93
2023-10-26T22:13:13.126Z,68.43
2023-10-26T22:15:39.931Z,56.60
2023-10-26T22:18:07.041Z,56.67
2023-10-26T22:20:36.801Z,51.25
2023-10-26T22:23:07.194Z,59.97
2023-10-26T22:25:34.106Z,59.10
2023-10-26T22:28:00.860Z,54.22
2023-10-26T22:30:27.938Z,70.78
2023-10-26T22:32:54.858Z,63.38
2023-10-26T22:35:21.633Z,65.82
2023-10-26T22:37:48.543Z,68.97
2023-10-26T22:40:15.516Z,68.10
2023-10-26T22:42:42.532Z,62.60
2023-10-26T22:45:09.611Z,60.30
2023-10-26T22:47:36.970Z,56.45
2023-10-26T22:50:04.634Z,59.40
2023-10-26T22:52:31.419Z,55.25
2023-10-26T22:55:00.450Z,48.72
2023-10-26T22:57:27.732Z,48.03
2023-10-26T22:59:59.594Z,53.90
2023-10-26T23:02:26.472Z,47.63
2023-10-26T23:04:55.970Z,47.97
2023-10-26T23:07:22.774Z,49.42
2023-10-26T23:09:49.535Z,44.47
2023-10-26T23:12:16.426Z,44.60
2023-10-26T23:14:43.677Z,46.63
2023-10-26T23:17:11.615Z,37.03
2023-10-26T23:19:38.551Z,41.35
2023-10-26T23:22:09.880Z,40.75
2023-10-26T23:24:38.869Z,40.10
2023-10-26T23:27:06.696Z,35.72
2023-10-26T23:29:33.849Z,39.95
2023-10-26T23:32:00.632Z,44.08
2023-10-26T23:34:28.833Z,40.50
2023-10-26T23:36:56.274Z,44.78
2023-10-26T23:39:23.165Z,47.47
2023-10-26T23:41:49.946Z,48.28
2023-10-26T23:44:16.653Z,49.90
2023-10-26T23:46:43.354Z,46.15
2023-10-26T23:49:10.247Z,46.58
2023-10-26T23:51:37.059Z,48.47
2023-10-26T23:54:03.984Z,40.38
2023-10-26T23:56:30.651Z,41.85
2023-10-26T23:58:57.402Z,43.22
